Friday, May 25, 2018, 8:38 PM EDT
Back to Local

KPSF, Pittsfield Municipal Airport

Location: Pittsfield, MA, United States Lat: 42.433
Local Time: 8:38 PM EDT ( 0:38 GMT) Lon: -73.283
Time Zone: US/Eastern Elev: 1194 ft

Show me the last for .
Show Decoded

2018-05-25 19:54 METAR KPSF 252354Z AUTO 25004KT 10SM CLR 24/09 A2981 RMK AO2 SLP072 T02440089
                 10289 20244 55004 =
2018-05-25 18:54 METAR KPSF 252254Z AUTO 27008KT 10SM CLR 27/07 A2980 RMK AO2 SLP072 T02670072 =
2018-05-25 17:54 METAR KPSF 252154Z AUTO 26013KT 10SM CLR 28/07 A2980 RMK AO2 SLP072 T02780072 =
2018-05-25 16:54 METAR KPSF 252054Z AUTO 25013KT 10SM CLR 28/07 A2982 RMK AO2 SLP077 T02830072
                 56019 =
2018-05-25 15:54 METAR KPSF 251954Z AUTO 26015KT 8SM CLR 28/07 A2984 RMK AO2 SLP082 T02830072 =
2018-05-25 14:54 METAR KPSF 251854Z AUTO 27015G23KT 9SM CLR 28/07 A2986 RMK AO2 SLP090 T02830067
                 =
2018-05-25 13:54 METAR KPSF 251754Z AUTO 26011G20KT 10SM CLR 27/11 A2988 RMK AO2 SLP096 T02720106
                 10272 20144 58025 =
2018-05-25 12:54 METAR KPSF 251654Z AUTO 26011KT 9SM CLR 26/09 A2991 RMK AO2 SLP106 T02610094 =
2018-05-25 11:54 METAR KPSF 251554Z AUTO 25014KT 10SM CLR 26/09 A2994 RMK AO2 SLP116 T02560089 =
2018-05-25 10:54 METAR KPSF 251454Z AUTO 27008G18KT 10SM CLR 24/08 A2996 RMK AO2 SLP124 T02440083
                 58018 =
2018-05-25 09:54 METAR KPSF 251354Z AUTO 27010G18KT 10SM CLR 23/07 A2998 RMK AO2 SLP130 T02280072
                 =
2018-05-25 08:54 METAR KPSF 251254Z AUTO VRB03KT 10SM CLR 19/12 A3000 RMK AO2 SLP137 T01890117 =
2018-05-25 07:54 METAR KPSF 251154Z AUTO 00000KT 10SM CLR 14/11 A3001 RMK AO2 SLP142 T01440106
                 10144 20083 58002 =
2018-05-25 06:54 METAR KPSF 251054Z AUTO 00000KT 10SM CLR 10/08 A3002 RMK AO2 SLP148 T01000078 =
2018-05-25 05:54 METAR KPSF 250954Z AUTO 00000KT 6SM BR CLR 08/07 A3002 RMK AO2 SLP149 T00830072
                 =
2018-05-25 04:54 METAR KPSF 250854Z AUTO 00000KT 10SM CLR 09/07 A3002 RMK AO2 SLP147 T00890072
                 56008 =
2018-05-25 03:54 METAR KPSF 250754Z AUTO 00000KT 10SM CLR 09/07 A3002 RMK AO2 SLP147 T00890072 =
2018-05-25 02:54 METAR KPSF 250654Z AUTO 00000KT 10SM CLR 09/07 A3003 RMK AO2 SLP152 T00940072 =
2018-05-25 01:54 METAR KPSF 250554Z AUTO 00000KT 10SM CLR 10/08 A3004 RMK AO2 SLP155 T01000078
                 10217 20100 58009 =
2018-05-25 00:54 METAR KPSF 250454Z AUTO 00000KT 10SM CLR 11/08 A3005 RMK AO2 SLP160 T01110083
                 402440111 =
2018-05-24 23:54 METAR KPSF 250354Z AUTO 00000KT 10SM CLR 12/08 A3007 RMK AO2 SLP164 T01170083 =
2018-05-24 22:54 METAR KPSF 250254Z AUTO 00000KT 10SM CLR 12/08 A3007 RMK AO2 SLP166 T01220083
                 50003 =
2018-05-24 21:54 METAR KPSF 250154Z AUTO VRB03KT 10SM CLR 15/07 A3008 RMK AO2 SLP167 T01500072 =
2018-05-24 20:54 METAR KPSF 250054Z AUTO 25005KT 10SM CLR 17/07 A3007 RMK AO2 SLP164 T01720072 =

Support USWX by starting your Amazon purchase here.